Time;durP1;ratioP1;P1;durP2;ratioP2;P2;SDS_P1;SDS_P2;PMS_P1;PMS_P2;Temp;Humidity;BMP_temperature;BMP_pressure;BME280_temperature;BME280_humidity;BME280_pressure;Samples;Min_cycle;Max_cycle;Signal;HPM_P1;HPM_P2
2023/01/31 00:00:18;;;;;;;218.10;141.85;;;;;;;;;;5019395;28;20060;-74
2023/01/31 00:02:44;;;;;;;111.75;81.88;;;;;;;;;;5011396;28;20497;-72
2023/01/31 00:05:09;;;;;;;101.90;70.95;;;;;;;;;;5010596;28;20122;-75
2023/01/31 00:07:34;;;;;;;70.20;51.65;;;;;;;;;;5011939;28;20021;-76
2023/01/31 00:09:59;;;;;;;59.50;45.35;;;;;;;;;;5021320;28;20513;-73
2023/01/31 00:12:25;;;;;;;65.68;48.00;;;;;;;;;;5025225;28;20025;-74
2023/01/31 00:14:50;;;;;;;64.85;46.42;;;;;;;;;;5025060;28;20036;-73
2023/01/31 00:17:15;;;;;;;68.85;50.75;;;;;;;;;;5013865;28;20021;-73
2023/01/31 00:19:41;;;;;;;71.30;52.58;;;;;;;;;;5015539;28;20033;-73
2023/01/31 00:22:06;;;;;;;91.57;65.32;;;;;;;;;;5023213;28;20108;-72
2023/01/31 00:24:31;;;;;;;103.20;69.47;;;;;;;;;;5023654;28;20139;-73
2023/01/31 00:26:56;;;;;;;122.07;80.07;;;;;;;;;;5023882;28;20033;-72
2023/01/31 00:29:23;;;;;;;106.72;73.78;;;;;;;;;;5022776;28;20025;-73
2023/01/31 00:31:48;;;;;;;98.50;71.13;;;;;;;;;;5011134;28;20136;-77
2023/01/31 00:34:13;;;;;;;93.57;67.85;;;;;;;;;;5015613;28;20480;-74
2023/01/31 00:36:38;;;;;;;100.65;72.05;;;;;;;;;;5024816;28;20360;-73
2023/01/31 00:39:05;;;;;;;86.30;63.60;;;;;;;;;;5025559;28;20030;-73
2023/01/31 00:41:31;;;;;;;57.08;41.97;;;;;;;;;;5025866;28;20033;-72
2023/01/31 00:43:56;;;;;;;62.58;48.28;;;;;;;;;;5024014;28;20106;-77
2023/01/31 00:46:24;;;;;;;77.00;55.20;;;;;;;;;;5018131;28;20084;-73
2023/01/31 00:48:50;;;;;;;72.82;53.47;;;;;;;;;;5012087;28;20037;-74
2023/01/31 00:51:15;;;;;;;54.78;42.67;;;;;;;;;;5024119;28;20021;-72
2023/01/31 00:53:40;;;;;;;43.72;33.00;;;;;;;;;;5016239;28;20441;-73
2023/01/31 00:56:08;;;;;;;47.45;34.20;;;;;;;;;;5022702;28;20072;-72
2023/01/31 00:58:41;;;;;;;33.13;24.33;;;;;;;;;;5023925;28;20060;-77
2023/01/31 01:01:15;;;;;;;47.83;33.90;;;;;;;;;;5018385;28;20025;-74
2023/01/31 01:03:41;;;;;;;47.22;33.45;;;;;;;;;;5015500;28;20082;-74
2023/01/31 01:06:07;;;;;;;32.53;25.45;;;;;;;;;;5017960;28;20399;-75
2023/01/31 01:08:32;;;;;;;51.22;38.70;;;;;;;;;;5023221;28;20033;-75
2023/01/31 01:11:05;;;;;;;55.00;37.92;;;;;;;;;;5018415;28;20036;-74
2023/01/31 01:13:30;;;;;;;84.32;61.28;;;;;;;;;;5017456;28;20025;-75
2023/01/31 01:15:56;;;;;;;65.38;47.30;;;;;;;;;;5013789;28;20062;-74
2023/01/31 01:18:21;;;;;;;56.53;42.05;;;;;;;;;;5014352;28;20095;-73
2023/01/31 01:20:46;;;;;;;46.15;34.22;;;;;;;;;;5024546;28;20499;-74
2023/01/31 01:23:11;;;;;;;44.30;34.67;;;;;;;;;;5023094;28;20033;-73
2023/01/31 01:25:45;;;;;;;59.80;45.38;;;;;;;;;;5023631;28;20033;-74
2023/01/31 01:28:11;;;;;;;69.13;48.85;;;;;;;;;;5023686;28;20037;-73
2023/01/31 01:30:37;;;;;;;62.13;43.33;;;;;;;;;;5021697;28;20079;-75
2023/01/31 01:33:02;;;;;;;38.65;30.65;;;;;;;;;;5010004;28;20086;-72
2023/01/31 01:35:28;;;;;;;38.97;29.60;;;;;;;;;;5018978;28;20035;-72
2023/01/31 01:37:53;;;;;;;37.95;29.05;;;;;;;;;;5013695;28;20029;-72
2023/01/31 01:40:18;;;;;;;35.88;28.15;;;;;;;;;;5023332;28;20068;-72
2023/01/31 01:42:44;;;;;;;39.72;30.20;;;;;;;;;;5018324;28;20453;-72
2023/01/31 01:45:15;;;;;;;34.85;26.80;;;;;;;;;;5017377;28;20041;-73
2023/01/31 01:47:49;;;;;;;39.95;30.08;;;;;;;;;;5022598;28;20428;-72
2023/01/31 01:50:17;;;;;;;44.53;33.22;;;;;;;;;;5018182;28;20025;-75
2023/01/31 01:52:55;;;;;;;40.88;31.15;;;;;;;;;;5023193;28;20030;-73
2023/01/31 01:55:23;;;;;;;43.00;33.78;;;;;;;;;;5024199;28;20033;-73
2023/01/31 01:57:50;;;;;;;56.45;43.15;;;;;;;;;;5023394;28;20071;-73
2023/01/31 02:00:19;;;;;;;43.78;34.95;;;;;;;;;;5023322;28;20030;-73
2023/01/31 02:02:46;;;;;;;46.63;36.72;;;;;;;;;;5025027;28;20349;-73
2023/01/31 02:05:14;;;;;;;48.83;35.85;;;;;;;;;;5014575;28;20047;-76
2023/01/31 02:07:40;;;;;;;52.85;40.85;;;;;;;;;;5020727;28;20022;-72
2023/01/31 02:10:11;;;;;;;51.78;38.70;;;;;;;;;;5024175;28;20033;-72
2023/01/31 02:12:37;;;;;;;48.60;37.55;;;;;;;;;;5020568;28;20097;-72
2023/01/31 02:15:03;;;;;;;47.78;37.58;;;;;;;;;;5013188;28;20025;-74
2023/01/31 02:17:28;;;;;;;45.45;35.88;;;;;;;;;;5020585;28;20043;-76
2023/01/31 02:20:12;;;;;;;49.17;38.30;;;;;;;;;;5021693;28;20105;-74
2023/01/31 02:22:56;;;;;;;51.38;38.65;;;;;;;;;;5023740;28;20025;-73
2023/01/31 02:25:21;;;;;;;52.90;42.63;;;;;;;;;;5023075;28;20025;-72
2023/01/31 02:27:46;;;;;;;62.72;48.88;;;;;;;;;;5021876;28;20140;-72
2023/01/31 02:30:26;;;;;;;53.00;41.15;;;;;;;;;;5021883;28;20036;-72
2023/01/31 02:33:10;;;;;;;42.90;33.72;;;;;;;;;;5023171;28;20398;-74
2023/01/31 02:35:41;;;;;;;46.08;34.90;;;;;;;;;;5023027;28;20030;-76
2023/01/31 02:38:06;;;;;;;44.28;33.67;;;;;;;;;;5023202;28;20457;-73
2023/01/31 02:40:38;;;;;;;50.00;37.58;;;;;;;;;;5021965;28;20037;-73
2023/01/31 02:43:17;;;;;;;48.65;36.35;;;;;;;;;;5023747;28;20045;-72
2023/01/31 02:45:43;;;;;;;;;;;;;;;;;;5024233;28;20113;-74
2023/01/31 02:48:11;;;;;;;52.53;38.67;;;;;;;;;;5022826;28;20015;-77
2023/01/31 02:50:53;;;;;;;67.32;48.42;;;;;;;;;;5020611;28;20033;-72
2023/01/31 02:53:45;;;;;;;82.32;56.78;;;;;;;;;;5022580;28;20029;-73
2023/01/31 02:56:30;;;;;;;58.28;42.35;;;;;;;;;;5020973;28;20151;-74
2023/01/31 02:58:59;;;;;;;59.38;43.50;;;;;;;;;;5026200;28;20025;-73
2023/01/31 03:01:29;;;;;;;63.45;49.17;;;;;;;;;;5027851;28;20108;-72
2023/01/31 03:04:00;;;;;;;48.65;36.15;;;;;;;;;;5025051;28;20334;-71
2023/01/31 03:06:25;;;;;;;54.55;41.13;;;;;;;;;;5026968;28;20029;-73
2023/01/31 03:09:10;;;;;;;40.28;33.03;;;;;;;;;;5027442;28;20037;-77
2023/01/31 03:11:53;;;;;;;38.25;30.35;;;;;;;;;;5025916;28;20078;-76
2023/01/31 03:14:37;;;;;;;39.58;30.67;;;;;;;;;;5027062;28;20486;-73
2023/01/31 03:19:59;;;;;;;41.35;31.38;;;;;;;;;;5025859;28;20095;-75
2023/01/31 03:22:26;;;;;;;40.80;31.50;;;;;;;;;;5026230;28;20025;-73
2023/01/31 03:24:52;;;;;;;41.70;30.63;;;;;;;;;;5026641;28;20107;-73
2023/01/31 03:27:19;;;;;;;41.95;31.33;;;;;;;;;;5017312;28;20033;-73
2023/01/31 03:29:45;;;;;;;37.45;29.25;;;;;;;;;;5017254;28;20037;-72
2023/01/31 03:32:13;;;;;;;45.22;34.72;;;;;;;;;;5018713;28;20040;-75
2023/01/31 03:34:38;;;;;;;40.30;28.67;;;;;;;;;;5026807;28;20036;-74
2023/01/31 03:37:15;;;;;;;37.72;29.17;;;;;;;;;;5027849;28;20045;-73
2023/01/31 03:39:41;;;;;;;43.53;34.03;;;;;;;;;;5027552;28;20065;-73
2023/01/31 03:42:16;;;;;;;51.05;38.00;;;;;;;;;;5023540;28;20482;-73
2023/01/31 03:45:04;;;;;;;31.48;25.95;;;;;;;;;;5022669;28;20052;-74
2023/01/31 03:47:29;;;;;;;33.88;26.70;;;;;;;;;;5003638;28;20052;-74
2023/01/31 03:49:57;;;;;;;34.83;27.63;;;;;;;;;;5026200;28;20041;-74
2023/01/31 03:52:29;;;;;;;39.25;29.63;;;;;;;;;;5025448;28;20017;-74
2023/01/31 03:54:59;;;;;;;37.55;29.08;;;;;;;;;;5025778;28;20480;-74
2023/01/31 03:57:29;;;;;;;45.63;39.05;;;;;;;;;;5026142;28;20029;-74
2023/01/31 03:59:56;;;;;;;35.38;29.65;;;;;;;;;;5027382;28;20917;-75
2023/01/31 04:02:24;;;;;;;36.30;28.35;;;;;;;;;;5025814;28;20168;-74
2023/01/31 04:04:55;;;;;;;39.95;30.20;;;;;;;;;;5020350;28;20040;-74
2023/01/31 04:07:20;;;;;;;38.80;29.15;;;;;;;;;;5019334;28;20072;-73
2023/01/31 04:09:45;;;;;;;40.40;32.08;;;;;;;;;;5025296;28;20055;-74
2023/01/31 04:12:12;;;;;;;29.52;24.75;;;;;;;;;;5025955;28;20026;-73
2023/01/31 04:14:37;;;;;;;31.27;25.95;;;;;;;;;;5026352;28;20030;-78
2023/01/31 04:17:02;;;;;;;35.85;28.63;;;;;;;;;;5026521;28;20036;-73
2023/01/31 04:19:28;;;;;;;40.92;32.15;;;;;;;;;;5026465;28;20103;-74
2023/01/31 04:21:53;;;;;;;36.78;29.35;;;;;;;;;;5024993;28;20096;-77
2023/01/31 04:24:18;;;;;;;36.15;28.55;;;;;;;;;;5021154;28;20030;-74
2023/01/31 04:26:44;;;;;;;45.08;33.17;;;;;;;;;;5018253;28;20029;-74
2023/01/31 04:29:09;;;;;;;52.63;41.47;;;;;;;;;;5024526;28;20448;-74
2023/01/31 04:31:34;;;;;;;48.58;38.95;;;;;;;;;;5026151;28;20025;-74
2023/01/31 04:33:59;;;;;;;46.17;36.00;;;;;;;;;;5024464;28;20062;-73
2023/01/31 04:36:25;;;;;;;39.40;30.80;;;;;;;;;;5024113;28;20036;-73
2023/01/31 04:38:50;;;;;;;44.13;34.63;;;;;;;;;;5011289;28;20094;-73
2023/01/31 04:41:16;;;;;;;41.55;31.08;;;;;;;;;;5020548;28;20033;-74
2023/01/31 04:43:41;;;;;;;33.88;27.85;;;;;;;;;;5014503;28;20483;-74
2023/01/31 04:46:06;;;;;;;38.30;29.58;;;;;;;;;;5018907;28;20030;-74
2023/01/31 04:48:32;;;;;;;33.38;25.23;;;;;;;;;;5014042;28;20396;-74
2023/01/31 04:50:57;;;;;;;37.33;29.08;;;;;;;;;;5011715;28;20032;-76
2023/01/31 04:53:23;;;;;;;31.45;23.50;;;;;;;;;;5011117;28;20356;-74
2023/01/31 04:55:48;;;;;;;35.90;28.13;;;;;;;;;;5012535;28;20056;-74
2023/01/31 04:58:13;;;;;;;31.83;25.90;;;;;;;;;;5021939;28;20858;-73
2023/01/31 05:00:38;;;;;;;32.55;27.15;;;;;;;;;;5015149;28;20025;-73
2023/01/31 05:03:04;;;;;;;31.70;24.27;;;;;;;;;;5025727;28;20480;-73
2023/01/31 05:05:29;;;;;;;26.20;19.35;;;;;;;;;;5025145;28;20028;-74
2023/01/31 05:07:55;;;;;;;35.25;27.45;;;;;;;;;;5024617;28;20029;-74
2023/01/31 05:10:20;;;;;;;29.58;24.00;;;;;;;;;;5023015;28;20025;-77
2023/01/31 05:12:45;;;;;;;41.80;30.90;;;;;;;;;;5024346;28;20040;-74
2023/01/31 05:15:11;;;;;;;33.38;26.00;;;;;;;;;;5025139;28;20052;-75
2023/01/31 05:17:36;;;;;;;31.50;24.65;;;;;;;;;;5016876;28;20306;-75
2023/01/31 05:20:02;;;;;;;35.90;28.73;;;;;;;;;;5016284;28;20452;-74
2023/01/31 05:22:28;;;;;;;39.38;31.80;;;;;;;;;;5022710;28;20075;-75
2023/01/31 05:24:53;;;;;;;48.00;36.70;;;;;;;;;;5023467;28;20021;-75
2023/01/31 05:27:18;;;;;;;38.22;30.13;;;;;;;;;;5013649;28;20017;-76
2023/01/31 05:29:44;;;;;;;41.17;30.38;;;;;;;;;;5025068;28;20459;-74
2023/01/31 05:32:10;;;;;;;51.42;39.80;;;;;;;;;;5024138;28;20052;-73
2023/01/31 05:34:35;;;;;;;56.45;44.30;;;;;;;;;;5012947;28;20408;-74
2023/01/31 05:37:01;;;;;;;64.68;48.63;;;;;;;;;;5023429;28;20033;-74
2023/01/31 05:39:27;;;;;;;84.53;64.35;;;;;;;;;;5022291;28;20033;-73
2023/01/31 05:41:52;;;;;;;54.35;42.17;;;;;;;;;;5019752;28;20112;-74
2023/01/31 05:44:17;;;;;;;84.65;66.47;;;;;;;;;;5016623;28;20060;-73
2023/01/31 05:46:43;;;;;;;115.00;89.20;;;;;;;;;;5021826;28;20034;-73
2023/01/31 05:49:08;;;;;;;27.15;23.13;;;;;;;;;;5022508;28;20256;-74
2023/01/31 05:51:34;;;;;;;58.47;48.70;;;;;;;;;;5022472;28;20338;-74
2023/01/31 05:53:59;;;;;;;28.35;23.02;;;;;;;;;;5022655;28;20028;-74
2023/01/31 05:56:24;;;;;;;29.25;25.67;;;;;;;;;;5019279;28;20044;-74
2023/01/31 05:58:50;;;;;;;46.03;36.65;;;;;;;;;;5016803;28;20029;-73
2023/01/31 06:01:17;;;;;;;21.02;17.38;;;;;;;;;;5012055;28;20041;-74
2023/01/31 06:03:42;;;;;;;18.70;15.95;;;;;;;;;;5010862;28;20030;-78
2023/01/31 06:06:07;;;;;;;52.70;38.70;;;;;;;;;;5013908;28;20112;-76
2023/01/31 06:08:33;;;;;;;29.70;25.20;;;;;;;;;;5009991;28;20079;-75
2023/01/31 06:11:01;;;;;;;40.92;35.28;;;;;;;;;;5010607;28;20083;-77
2023/01/31 06:13:26;;;;;;;37.55;33.38;;;;;;;;;;5018392;28;20420;-74
2023/01/31 06:15:51;;;;;;;34.40;28.83;;;;;;;;;;5022898;28;20033;-74
2023/01/31 06:18:16;;;;;;;36.03;28.30;;;;;;;;;;5022620;28;20033;-73
2023/01/31 06:20:42;;;;;;;39.03;32.25;;;;;;;;;;5023249;28;20559;-74
2023/01/31 06:23:07;;;;;;;35.70;31.67;;;;;;;;;;5023923;28;20104;-74
2023/01/31 06:25:32;;;;;;;39.85;31.38;;;;;;;;;;5023716;28;20052;-73
2023/01/31 06:27:58;;;;;;;52.72;42.13;;;;;;;;;;5014394;28;20033;-72
2023/01/31 06:30:23;;;;;;;50.97;39.72;;;;;;;;;;5017649;28;21097;-74
2023/01/31 06:32:48;;;;;;;35.60;27.17;;;;;;;;;;5023570;28;20029;-73
2023/01/31 06:35:14;;;;;;;41.25;32.22;;;;;;;;;;5024074;28;20138;-75
2023/01/31 06:37:39;;;;;;;89.63;48.70;;;;;;;;;;5022415;28;20427;-74
2023/01/31 06:40:05;;;;;;;130.80;102.80;;;;;;;;;;5022742;28;20064;-73
2023/01/31 06:42:30;;;;;;;173.43;142.52;;;;;;;;;;5013054;28;20445;-72
2023/01/31 06:44:55;;;;;;;87.38;78.28;;;;;;;;;;5008860;28;20026;-71
2023/01/31 06:47:21;;;;;;;67.07;59.70;;;;;;;;;;5021912;28;20037;-71
2023/01/31 06:49:46;;;;;;;76.32;60.67;;;;;;;;;;5015764;28;20037;-76
2023/01/31 06:52:11;;;;;;;54.75;43.33;;;;;;;;;;5017892;28;20037;-74
2023/01/31 06:54:36;;;;;;;44.70;38.28;;;;;;;;;;5021046;28;20325;-71
2023/01/31 06:57:02;;;;;;;52.35;40.75;;;;;;;;;;5021781;28;20025;-75
2023/01/31 06:59:27;;;;;;;34.85;29.17;;;;;;;;;;5023380;28;20029;-74
2023/01/31 07:01:52;;;;;;;45.30;37.83;;;;;;;;;;5022135;28;20140;-79
2023/01/31 07:04:18;;;;;;;41.38;34.03;;;;;;;;;;5022531;28;20754;-74
2023/01/31 07:06:43;;;;;;;32.38;27.25;;;;;;;;;;5025494;28;20033;-74
2023/01/31 07:09:09;;;;;;;33.80;27.83;;;;;;;;;;5020503;28;20111;-75
2023/01/31 07:11:35;;;;;;;35.42;28.38;;;;;;;;;;5024609;28;20068;-74
2023/01/31 07:14:01;;;;;;;47.72;37.90;;;;;;;;;;5022974;28;20031;-77
2023/01/31 07:16:26;;;;;;;34.80;29.77;;;;;;;;;;5022152;28;20534;-77
2023/01/31 07:18:52;;;;;;;29.75;25.33;;;;;;;;;;5022405;28;20041;-74
2023/01/31 07:21:17;;;;;;;34.63;30.33;;;;;;;;;;5022021;28;20366;-74
2023/01/31 07:23:44;;;;;;;48.58;41.80;;;;;;;;;;5022750;28;20028;-73
2023/01/31 07:26:09;;;;;;;49.97;41.63;;;;;;;;;;5020576;28;20029;-74
2023/01/31 07:28:35;;;;;;;38.75;34.45;;;;;;;;;;5024110;28;20020;-74
2023/01/31 07:31:09;;;;;;;34.38;29.92;;;;;;;;;;5022632;28;21176;-76
2023/01/31 07:33:34;;;;;;;34.33;30.65;;;;;;;;;;5022380;28;20052;-74
2023/01/31 07:36:01;;;;;;;38.92;34.55;;;;;;;;;;5023052;28;20488;-73
2023/01/31 07:38:26;;;;;;;44.55;39.75;;;;;;;;;;5022880;28;20028;-76
2023/01/31 07:40:51;;;;;;;28.77;24.80;;;;;;;;;;5023520;28;20029;-74
2023/01/31 07:43:17;;;;;;;31.60;28.20;;;;;;;;;;5022730;28;20193;-73
2023/01/31 07:45:42;;;;;;;35.33;31.48;;;;;;;;;;5024843;28;20527;-77
2023/01/31 07:48:07;;;;;;;33.60;30.13;;;;;;;;;;5026588;28;20044;-73
2023/01/31 07:50:32;;;;;;;31.20;27.90;;;;;;;;;;5027193;28;20021;-73
2023/01/31 07:52:58;;;;;;;24.45;21.92;;;;;;;;;;5026394;28;20029;-73
2023/01/31 07:55:23;;;;;;;24.30;21.80;;;;;;;;;;5026920;28;20024;-74
2023/01/31 07:57:49;;;;;;;40.80;36.70;;;;;;;;;;5025850;28;20033;-73
2023/01/31 08:05:44;;;;;;;79.10;58.95;;;;;;;;;;5025266;28;20849;-73
2023/01/31 08:08:09;;;;;;;75.82;57.92;;;;;;;;;;5024634;28;20060;-73
2023/01/31 08:10:35;;;;;;;55.35;44.10;;;;;;;;;;5026621;28;20021;-76
2023/01/31 08:13:00;;;;;;;46.03;39.53;;;;;;;;;;5026895;28;20326;-73
2023/01/31 08:15:25;;;;;;;48.17;41.83;;;;;;;;;;5023984;28;20064;-73
2023/01/31 08:17:50;;;;;;;29.15;25.08;;;;;;;;;;5026053;28;20029;-73
2023/01/31 08:20:17;;;;;;;44.03;39.33;;;;;;;;;;5024979;28;20461;-75
2023/01/31 08:22:43;;;;;;;37.67;30.83;;;;;;;;;;5024803;28;20026;-73
2023/01/31 08:25:08;;;;;;;41.28;34.83;;;;;;;;;;5025918;28;20028;-73
2023/01/31 08:27:34;;;;;;;29.25;26.08;;;;;;;;;;5024763;28;20061;-74
2023/01/31 08:29:59;;;;;;;28.55;25.15;;;;;;;;;;5016381;28;20041;-73
2023/01/31 08:32:24;;;;;;;19.38;17.38;;;;;;;;;;5021329;28;20064;-73
2023/01/31 08:34:50;;;;;;;35.72;31.98;;;;;;;;;;5023245;28;20140;-76
2023/01/31 08:37:15;;;;;;;29.15;26.08;;;;;;;;;;5021049;28;20032;-73
2023/01/31 08:39:43;;;;;;;24.95;22.10;;;;;;;;;;5007306;28;20101;-73
2023/01/31 08:42:08;;;;;;;29.65;26.55;;;;;;;;;;5010127;28;20053;-74
2023/01/31 08:44:36;;;;;;;33.22;29.50;;;;;;;;;;5009632;28;20060;-74
2023/01/31 08:47:02;;;;;;;35.85;30.83;;;;;;;;;;5009313;28;20135;-77
2023/01/31 08:49:27;;;;;;;50.17;42.17;;;;;;;;;;5010610;28;20112;-76
2023/01/31 08:51:52;;;;;;;42.25;37.65;;;;;;;;;;5010365;28;20060;-75
2023/01/31 08:54:18;;;;;;;54.67;44.38;;;;;;;;;;5009105;28;20030;-74
2023/01/31 08:56:43;;;;;;;51.70;44.67;;;;;;;;;;5012058;28;20693;-74
2023/01/31 08:59:09;;;;;;;49.28;42.75;;;;;;;;;;5011171;28;20036;-74
2023/01/31 09:01:34;;;;;;;31.73;26.80;;;;;;;;;;5011918;28;20028;-74
2023/01/31 09:04:00;;;;;;;41.85;35.72;;;;;;;;;;5009559;28;20029;-77
2023/01/31 09:06:26;;;;;;;37.53;33.60;;;;;;;;;;5012059;28;20064;-73
2023/01/31 09:08:51;;;;;;;79.18;63.95;;;;;;;;;;5008489;28;20041;-75
2023/01/31 09:11:18;;;;;;;37.22;33.22;;;;;;;;;;5010902;28;20020;-74
2023/01/31 09:13:44;;;;;;;42.03;37.58;;;;;;;;;;5011840;28;20124;-74
2023/01/31 09:16:10;;;;;;;30.67;25.67;;;;;;;;;;5009506;28;20039;-73
2023/01/31 09:18:37;;;;;;;29.45;26.00;;;;;;;;;;5012860;28;20030;-74
2023/01/31 09:21:07;;;;;;;40.80;36.40;;;;;;;;;;5011537;28;20021;-76
2023/01/31 09:23:32;;;;;;;46.22;39.70;;;;;;;;;;5012202;28;20352;-76
2023/01/31 09:25:58;;;;;;;34.38;30.83;;;;;;;;;;5011222;28;20025;-74
2023/01/31 09:28:23;;;;;;;60.80;45.13;;;;;;;;;;5010905;28;20037;-76
2023/01/31 09:30:49;;;;;;;115.97;89.70;;;;;;;;;;5012734;28;20039;-75
2023/01/31 09:33:15;;;;;;;52.78;45.42;;;;;;;;;;5012079;28;20051;-75
2023/01/31 09:35:41;;;;;;;44.03;35.70;;;;;;;;;;5010158;28;20036;-75
2023/01/31 09:38:06;;;;;;;53.17;44.13;;;;;;;;;;5010681;28;20032;-75
2023/01/31 09:40:34;;;;;;;28.33;25.10;;;;;;;;;;5010744;28;20429;-73
2023/01/31 09:43:01;;;;;;;29.88;25.25;;;;;;;;;;5011766;28;20084;-75
2023/01/31 09:45:35;;;;;;;25.58;22.15;;;;;;;;;;5010733;28;20029;-77
2023/01/31 09:48:01;;;;;;;26.42;23.60;;;;;;;;;;5009410;28;20025;-76
2023/01/31 09:50:26;;;;;;;46.47;39.97;;;;;;;;;;5011238;28;20032;-75
2023/01/31 09:52:52;;;;;;;42.10;35.33;;;;;;;;;;5013434;28;20033;-77
2023/01/31 09:55:20;;;;;;;38.53;28.33;;;;;;;;;;5014028;28;20406;-75
2023/01/31 09:57:52;;;;;;;36.28;28.42;;;;;;;;;;5014484;28;20040;-74
2023/01/31 10:00:17;;;;;;;30.73;25.33;;;;;;;;;;5012203;28;20052;-74
2023/01/31 10:02:45;;;;;;;25.85;22.50;;;;;;;;;;5012690;28;22757;-75
2023/01/31 10:05:13;;;;;;;29.02;25.35;;;;;;;;;;5012482;28;20174;-76
2023/01/31 10:08:05;;;;;;;19.80;15.38;;;;;;;;;;5011115;28;20501;-78
2023/01/31 10:10:57;;;;;;;13.55;12.02;;;;;;;;;;4987357;28;20034;-75
2023/01/31 10:13:25;;;;;;;31.63;26.88;;;;;;;;;;4986869;28;20042;-75
2023/01/31 10:15:56;;;;;;;27.27;24.40;;;;;;;;;;4988107;28;20042;-76
2023/01/31 10:18:27;;;;;;;16.33;14.73;;;;;;;;;;4989819;28;21183;-74
2023/01/31 10:21:04;;;;;;;14.57;11.93;;;;;;;;;;4996976;28;20042;-74
2023/01/31 10:23:35;;;;;;;10.88;9.25;;;;;;;;;;5001526;28;20033;-74
2023/01/31 10:26:15;;;;;;;20.95;17.17;;;;;;;;;;5002171;28;20122;-77
2023/01/31 10:28:46;;;;;;;14.32;12.75;;;;;;;;;;5001075;28;20069;-76
2023/01/31 10:31:11;;;;;;;19.50;16.00;;;;;;;;;;5001040;28;20042;-76
2023/01/31 10:33:39;;;;;;;22.23;17.80;;;;;;;;;;4991014;28;20099;-75
2023/01/31 10:36:09;;;;;;;19.67;16.77;;;;;;;;;;4994073;28;20029;-74
2023/01/31 10:38:40;;;;;;;32.65;25.60;;;;;;;;;;4963386;28;20034;-75
2023/01/31 10:41:11;;;;;;;27.92;22.42;;;;;;;;;;4999149;28;20144;-73
2023/01/31 10:43:42;;;;;;;27.17;21.38;;;;;;;;;;5001800;28;20049;-74
2023/01/31 10:46:09;;;;;;;26.02;21.48;;;;;;;;;;5002180;28;20523;-75
2023/01/31 10:48:34;;;;;;;21.15;18.35;;;;;;;;;;5024387;28;20138;-74
2023/01/31 10:51:25;;;;;;;21.13;18.13;;;;;;;;;;5021380;28;20457;-79
2023/01/31 10:53:59;;;;;;;33.28;26.35;;;;;;;;;;5008175;28;20045;-75
2023/01/31 10:56:32;;;;;;;28.48;23.75;;;;;;;;;;5012290;28;20025;-74
2023/01/31 10:58:58;;;;;;;34.40;26.58;;;;;;;;;;5023029;28;20094;-76
2023/01/31 11:01:24;;;;;;;32.55;24.92;;;;;;;;;;5022313;28;20116;-76
2023/01/31 11:03:50;;;;;;;21.52;18.00;;;;;;;;;;5021752;28;20149;-74
2023/01/31 11:06:16;;;;;;;25.08;21.60;;;;;;;;;;5023150;28;20408;-72
2023/01/31 11:08:44;;;;;;;32.17;26.80;;;;;;;;;;5023509;28;20057;-76
2023/01/31 11:11:17;;;;;;;22.58;17.45;;;;;;;;;;5022657;28;20026;-76
2023/01/31 11:14:02;;;;;;;30.33;24.88;;;;;;;;;;5022461;28;20057;-74
2023/01/31 11:16:30;;;;;;;38.95;30.88;;;;;;;;;;5023381;28;20033;-74
2023/01/31 11:18:56;;;;;;;61.72;45.78;;;;;;;;;;5023930;28;20037;-73
2023/01/31 11:21:23;;;;;;;43.10;33.97;;;;;;;;;;5026294;28;20456;-74
2023/01/31 11:23:50;;;;;;;82.43;52.20;;;;;;;;;;5027245;28;20091;-73
2023/01/31 11:26:32;;;;;;;155.82;79.78;;;;;;;;;;5026887;28;20033;-73
2023/01/31 11:28:57;;;;;;;28.15;19.90;;;;;;;;;;5026740;28;20444;-76
2023/01/31 11:31:33;;;;;;;30.65;22.05;;;;;;;;;;5028034;28;20047;-78
2023/01/31 11:34:03;;;;;;;51.15;32.55;;;;;;;;;;5026721;28;20029;-78
2023/01/31 11:36:41;;;;;;;30.30;23.27;;;;;;;;;;5026082;28;20025;-77
2023/01/31 11:39:25;;;;;;;100.25;58.42;;;;;;;;;;5026475;28;20453;-75
2023/01/31 11:41:51;;;;;;;110.45;59.97;;;;;;;;;;5025519;28;20021;-77
2023/01/31 11:44:18;;;;;;;32.28;23.83;;;;;;;;;;5025668;28;20483;-74
2023/01/31 11:46:46;;;;;;;45.40;30.92;;;;;;;;;;5027050;28;20336;-76
2023/01/31 11:49:12;;;;;;;53.53;38.47;;;;;;;;;;5027309;28;20033;-77
2023/01/31 11:51:39;;;;;;;23.80;19.45;;;;;;;;;;5026964;28;20350;-75
2023/01/31 11:54:05;;;;;;;26.98;21.15;;;;;;;;;;5027012;28;20376;-75
2023/01/31 11:56:33;;;;;;;66.00;48.25;;;;;;;;;;5027607;28;20025;-74
2023/01/31 11:59:05;;;;;;;55.05;42.60;;;;;;;;;;5025293;28;20741;-76
2023/01/31 12:01:31;;;;;;;32.10;26.50;;;;;;;;;;5021500;28;20368;-76
2023/01/31 12:03:58;;;;;;;34.40;29.85;;;;;;;;;;5026840;28;20033;-75
2023/01/31 12:06:34;;;;;;;23.17;19.40;;;;;;;;;;5027732;28;20033;-76
2023/01/31 12:09:00;;;;;;;26.73;23.92;;;;;;;;;;5025669;28;20140;-74
2023/01/31 12:11:25;;;;;;;30.80;27.58;;;;;;;;;;5026888;28;20146;-74
2023/01/31 12:14:00;;;;;;;22.98;19.50;;;;;;;;;;5025321;28;20444;-76
2023/01/31 12:16:27;;;;;;;40.17;31.52;;;;;;;;;;5024717;28;20033;-74
2023/01/31 12:18:58;;;;;;;49.63;38.53;;;;;;;;;;5024479;28;20357;-76
2023/01/31 12:21:26;;;;;;;44.00;34.75;;;;;;;;;;5026126;28;20083;-76
2023/01/31 12:24:17;;;;;;;36.22;27.42;;;;;;;;;;5025889;28;20167;-75
2023/01/31 12:26:47;;;;;;;35.85;27.65;;;;;;;;;;5026321;28;20055;-77
2023/01/31 12:29:12;;;;;;;40.72;28.30;;;;;;;;;;5025222;28;20041;-78
2023/01/31 12:31:37;;;;;;;37.50;27.52;;;;;;;;;;5022972;28;20079;-74
2023/01/31 12:34:13;;;;;;;30.25;21.60;;;;;;;;;;5025305;28;20036;-75
2023/01/31 12:36:48;;;;;;;35.78;27.33;;;;;;;;;;5024336;28;20090;-74
2023/01/31 12:39:19;;;;;;;28.33;22.02;;;;;;;;;;5025284;28;20080;-75
2023/01/31 12:41:44;;;;;;;45.30;35.95;;;;;;;;;;5023700;28;20026;-75
2023/01/31 12:44:14;;;;;;;24.70;20.13;;;;;;;;;;5022394;28;20048;-74
2023/01/31 12:46:49;;;;;;;23.55;17.23;;;;;;;;;;5023442;28;20061;-76
2023/01/31 12:49:14;;;;;;;25.15;19.65;;;;;;;;;;5024131;28;20033;-76
2023/01/31 12:51:49;;;;;;;32.80;26.40;;;;;;;;;;5021117;28;20087;-74
2023/01/31 12:54:28;;;;;;;35.80;29.05;;;;;;;;;;5024891;28;20432;-74
2023/01/31 12:57:10;;;;;;;33.15;26.15;;;;;;;;;;5025154;28;20025;-75
2023/01/31 12:59:54;;;;;;;51.28;43.38;;;;;;;;;;5024375;28;20538;-74
2023/01/31 13:02:22;;;;;;;39.58;32.80;;;;;;;;;;5022390;28;20026;-77
2023/01/31 13:04:51;;;;;;;27.33;22.58;;;;;;;;;;5024365;28;20023;-76
2023/01/31 13:07:39;;;;;;;32.42;27.50;;;;;;;;;;5025251;28;20032;-77
2023/01/31 13:10:09;;;;;;;45.20;35.40;;;;;;;;;;5024270;28;20460;-77
2023/01/31 13:12:35;;;;;;;48.47;38.50;;;;;;;;;;5024934;28;20036;-75
2023/01/31 13:15:14;;;;;;;47.78;29.85;;;;;;;;;;5024765;28;21015;-75
2023/01/31 13:17:41;;;;;;;39.97;25.13;;;;;;;;;;5026352;28;20025;-74
2023/01/31 13:20:18;;;;;;;33.13;22.35;;;;;;;;;;5025325;28;20098;-77
2023/01/31 13:22:52;;;;;;;40.63;30.83;;;;;;;;;;5024141;28;20029;-75
2023/01/31 13:25:23;;;;;;;45.72;34.53;;;;;;;;;;5024792;28;20070;-76
2023/01/31 13:27:54;;;;;;;42.60;32.97;;;;;;;;;;5024637;28;20021;-75
2023/01/31 13:30:38;;;;;;;43.08;35.33;;;;;;;;;;5040139;28;21191;-75
2023/01/31 13:33:13;;;;;;;40.20;31.25;;;;;;;;;;5023284;28;20031;-75
2023/01/31 13:35:40;;;;;;;43.42;34.30;;;;;;;;;;5023656;28;20037;-75
2023/01/31 13:38:12;;;;;;;46.13;34.25;;;;;;;;;;5022163;28;20033;-75
2023/01/31 13:40:41;;;;;;;31.70;25.83;;;;;;;;;;5024974;28;20038;-78
2023/01/31 13:43:11;;;;;;;103.33;76.20;;;;;;;;;;5022736;28;20045;-75
2023/01/31 13:45:41;;;;;;;26.05;20.20;;;;;;;;;;5022874;28;20104;-76
2023/01/31 13:48:09;;;;;;;69.22;55.38;;;;;;;;;;5024589;28;20075;-74
2023/01/31 13:50:38;;;;;;;24.35;19.58;;;;;;;;;;5024053;28;20025;-75
2023/01/31 13:53:05;;;;;;;29.10;24.55;;;;;;;;;;5023623;28;20052;-76
2023/01/31 13:55:38;;;;;;;30.98;25.45;;;;;;;;;;5025868;28;20044;-77
2023/01/31 13:58:05;;;;;;;16.88;15.10;;;;;;;;;;5024401;28;20471;-78
2023/01/31 14:00:37;;;;;;;20.08;15.88;;;;;;;;;;5024414;28;20033;-76
2023/01/31 14:03:04;;;;;;;18.35;15.25;;;;;;;;;;5023447;28;20475;-79
2023/01/31 14:05:52;;;;;;;19.40;17.15;;;;;;;;;;5022692;28;20021;-75
2023/01/31 14:08:27;;;;;;;22.45;17.80;;;;;;;;;;5014695;28;20029;-77
2023/01/31 14:10:59;;;;;;;14.45;11.73;;;;;;;;;;5023799;28;20037;-76
2023/01/31 14:13:37;;;;;;;19.75;15.80;;;;;;;;;;5023800;28;20351;-77
2023/01/31 14:16:02;;;;;;;31.17;23.55;;;;;;;;;;5022836;28;20055;-77
2023/01/31 14:18:35;;;;;;;20.65;17.13;;;;;;;;;;5021916;28;20045;-77
2023/01/31 14:21:18;;;;;;;25.67;17.15;;;;;;;;;;5013311;28;20057;-75
2023/01/31 14:23:45;;;;;;;176.57;87.43;;;;;;;;;;5021802;28;20029;-74
2023/01/31 14:26:29;;;;;;;98.93;61.85;;;;;;;;;;5024627;28;20033;-75
2023/01/31 14:28:55;;;;;;;234.40;133.40;;;;;;;;;;5023741;28;20479;-77
2023/01/31 14:31:20;;;;;;;159.65;109.10;;;;;;;;;;5023789;28;20037;-75